createdAt,value
2022-09-17T00:01:48.220Z,23.30
2022-09-17T00:04:50.215Z,23.40
2022-09-17T00:07:52.352Z,19.90
2022-09-17T00:10:54.221Z,21.90
2022-09-17T00:13:58.716Z,20.50
2022-09-17T00:17:02.047Z,23.50
2022-09-17T00:20:05.467Z,20.10
2022-09-17T00:23:08.238Z,22.70
2022-09-17T00:26:10.073Z,21.50
2022-09-17T00:29:12.126Z,21.90
2022-09-17T00:32:13.918Z,23.20
2022-09-17T00:35:15.865Z,23.20
2022-09-17T00:38:17.594Z,21.40
2022-09-17T00:41:20.592Z,22.10
2022-09-17T00:44:42.882Z,23.20
2022-09-17T00:48:01.137Z,23.20
2022-09-17T00:51:04.563Z,23.60
2022-09-17T00:54:08.430Z,25.80
2022-09-17T00:57:10.330Z,22.60
2022-09-17T01:00:14.915Z,23.30
2022-09-17T01:03:17.338Z,23.90
2022-09-17T01:06:54.125Z,21.20
2022-09-17T01:10:01.397Z,25.00
2022-09-17T01:13:18.518Z,22.90
2022-09-17T01:16:42.463Z,23.50
2022-09-17T01:20:17.861Z,24.10
2022-09-17T01:23:30.714Z,25.00
2022-09-17T01:27:03.649Z,23.90
2022-09-17T01:30:32.662Z,26.60
2022-09-17T01:33:38.301Z,26.30
2022-09-17T01:37:04.145Z,25.50
2022-09-17T01:40:20.259Z,25.80
2022-09-17T01:43:30.537Z,23.40
2022-09-17T01:46:37.095Z,22.00
2022-09-17T01:49:40.294Z,22.40
2022-09-17T01:52:44.689Z,25.20
2022-09-17T01:55:46.841Z,25.60
2022-09-17T01:58:53.882Z,28.10
2022-09-17T02:02:02.162Z,27.50
2022-09-17T02:05:16.974Z,22.90
2022-09-17T02:08:24.396Z,20.60
2022-09-17T02:11:26.335Z,24.90
2022-09-17T02:14:33.706Z,21.60
2022-09-17T02:17:40.529Z,19.30
2022-09-17T02:20:46.786Z,20.60
2022-09-17T02:24:04.226Z,21.10
2022-09-17T02:27:32.741Z,20.40
2022-09-17T02:30:34.679Z,21.90
2022-09-17T02:33:38.231Z,22.30
2022-09-17T02:36:40.300Z,20.60
2022-09-17T02:39:42.617Z,23.40
2022-09-17T02:43:06.458Z,25.50
2022-09-17T02:46:37.457Z,23.70
2022-09-17T02:49:50.257Z,25.50
2022-09-17T02:53:02.137Z,30.30
2022-09-17T02:56:27.259Z,25.50
2022-09-17T02:59:56.059Z,29.60
2022-09-17T03:03:01.158Z,30.90
2022-09-17T03:06:03.066Z,33.60
2022-09-17T03:09:04.861Z,29.60
2022-09-17T03:12:06.813Z,27.30
2022-09-17T03:15:09.098Z,27.00
2022-09-17T03:18:10.986Z,28.40
2022-09-17T03:21:12.856Z,28.10
2022-09-17T03:24:14.655Z,24.90
2022-09-17T03:27:16.519Z,30.00
2022-09-17T03:30:19.051Z,27.80
2022-09-17T03:33:21.081Z,30.80
2022-09-17T03:36:22.875Z,27.60
2022-09-17T03:39:24.718Z,26.10
2022-09-17T03:42:26.565Z,30.70
2022-09-17T03:45:28.333Z,28.80
2022-09-17T03:48:30.548Z,26.00
2022-09-17T03:51:32.699Z,25.90
2022-09-17T03:54:34.479Z,25.80
2022-09-17T03:57:36.339Z,26.00
2022-09-17T04:00:38.274Z,22.90
2022-09-17T04:03:40.130Z,24.10
2022-09-17T04:06:41.894Z,24.80
2022-09-17T04:09:43.790Z,23.20
2022-09-17T04:12:45.707Z,25.00
2022-09-17T04:15:48.148Z,23.50
2022-09-17T04:18:49.959Z,23.40
2022-09-17T04:21:53.118Z,23.40
2022-09-17T04:24:55.154Z,25.10
2022-09-17T04:27:56.926Z,26.40
2022-09-17T04:30:58.969Z,23.60
2022-09-17T04:34:00.745Z,22.60
2022-09-17T04:37:03.827Z,26.00
2022-09-17T04:40:08.040Z,19.70
2022-09-17T04:43:11.058Z,24.70
2022-09-17T04:46:14.372Z,22.60
2022-09-17T04:49:16.273Z,21.00
2022-09-17T04:52:18.304Z,25.30
2022-09-17T04:55:20.233Z,19.70
2022-09-17T04:58:22.111Z,23.60
2022-09-17T05:01:23.976Z,21.40
2022-09-17T05:04:25.958Z,18.90
2022-09-17T05:07:27.830Z,20.70
2022-09-17T05:10:29.609Z,22.40
2022-09-17T05:13:31.376Z,21.50
2022-09-17T05:16:33.565Z,21.70
2022-09-17T05:19:35.469Z,20.30
2022-09-17T05:22:41.993Z,23.20
2022-09-17T05:25:44.062Z,23.80
2022-09-17T05:28:45.918Z,21.60
2022-09-17T05:31:47.827Z,21.20
2022-09-17T05:34:50.319Z,20.80
2022-09-17T05:37:52.145Z,20.80
2022-09-17T05:40:53.950Z,19.80
2022-09-17T05:43:55.693Z,24.20
2022-09-17T05:46:57.547Z,20.00
2022-09-17T05:49:59.862Z,17.90
2022-09-17T05:53:06.279Z,20.30
2022-09-17T05:56:08.293Z,18.60
2022-09-17T05:59:10.143Z,18.90
2022-09-17T06:02:14.948Z,20.10
2022-09-17T06:05:17.484Z,19.90
2022-09-17T06:08:19.264Z,19.30
2022-09-17T06:11:21.099Z,19.70
2022-09-17T06:14:22.793Z,22.10
2022-09-17T06:17:24.491Z,19.40
2022-09-17T06:20:26.318Z,19.90
2022-09-17T06:23:31.484Z,20.20
2022-09-17T06:26:33.355Z,19.90
2022-09-17T06:29:35.115Z,20.70
2022-09-17T06:32:36.875Z,20.40
2022-09-17T06:35:38.625Z,19.70
2022-09-17T06:38:40.572Z,20.70
2022-09-17T06:41:43.436Z,18.10
2022-09-17T06:44:45.226Z,17.60
2022-09-17T06:47:46.963Z,17.30
2022-09-17T06:50:49.223Z,18.80
2022-09-17T06:53:51.087Z,17.60
2022-09-17T06:56:52.809Z,17.10
2022-09-17T06:59:54.762Z,17.10
2022-09-17T07:02:58.249Z,20.40
2022-09-17T07:06:00.214Z,17.60
2022-09-17T07:09:02.863Z,16.80
2022-09-17T07:12:08.395Z,18.50
2022-09-17T07:15:11.558Z,17.80
2022-09-17T07:18:13.430Z,16.20
2022-09-17T07:21:15.124Z,17.00
2022-09-17T07:24:16.956Z,15.50
2022-09-17T07:27:18.763Z,12.80
2022-09-17T07:30:21.047Z,14.70
2022-09-17T07:33:25.619Z,13.90
2022-09-17T07:36:27.946Z,15.60
2022-09-17T07:39:29.690Z,14.00
2022-09-17T07:42:33.149Z,15.60
2022-09-17T07:45:35.035Z,14.30
2022-09-17T07:48:36.918Z,14.40
2022-09-17T07:51:40.441Z,13.00
2022-09-17T07:54:42.642Z,11.70
2022-09-17T07:57:44.520Z,10.40
2022-09-17T08:00:46.440Z,16.30
2022-09-17T08:03:53.021Z,11.70
2022-09-17T08:06:54.859Z,12.20
2022-09-17T08:09:57.066Z,14.50
2022-09-17T08:12:59.204Z,14.60
2022-09-17T08:16:02.569Z,14.20
2022-09-17T08:19:04.322Z,18.00
2022-09-17T08:22:06.098Z,11.80
2022-09-17T08:25:09.170Z,13.90
2022-09-17T08:28:11.441Z,11.90
2022-09-17T08:31:14.327Z,13.30
2022-09-17T08:34:16.511Z,14.50
2022-09-17T08:37:18.267Z,12.90
2022-09-17T08:40:22.579Z,13.30
2022-09-17T08:43:25.717Z,13.10
2022-09-17T08:46:28.985Z,11.30
2022-09-17T08:49:37.431Z,10.00
2022-09-17T08:52:54.916Z,10.70
2022-09-17T08:56:11.319Z,14.70
2022-09-17T08:59:28.414Z,15.30
2022-09-17T09:02:44.101Z,16.30
2022-09-17T09:05:52.650Z,15.00
2022-09-17T09:09:04.031Z,13.40
2022-09-17T09:12:26.957Z,15.00
2022-09-17T09:15:33.092Z,16.10
2022-09-17T09:18:37.915Z,16.00
2022-09-17T09:21:45.683Z,15.90
2022-09-17T09:25:13.288Z,14.50
2022-09-17T09:28:23.322Z,11.70
2022-09-17T09:31:39.872Z,15.20
2022-09-17T09:34:41.850Z,14.20
2022-09-17T09:37:50.727Z,11.60
2022-09-17T09:41:00.937Z,16.20
2022-09-17T09:44:10.672Z,14.20
2022-09-17T09:47:27.196Z,15.20
2022-09-17T09:51:01.722Z,15.90
2022-09-17T09:54:37.146Z,15.20
2022-09-17T09:57:47.718Z,11.30
2022-09-17T10:00:49.579Z,15.00
2022-09-17T10:03:52.845Z,14.10
2022-09-17T10:07:20.789Z,17.90
2022-09-17T10:10:23.094Z,13.50
2022-09-17T10:13:25.301Z,15.00
2022-09-17T10:16:29.489Z,9.50
2022-09-17T10:19:31.363Z,15.10
2022-09-17T10:22:44.910Z,12.90
2022-09-17T10:25:47.698Z,10.90
2022-09-17T10:29:11.695Z,12.30
2022-09-17T10:32:18.198Z,15.20
2022-09-17T10:35:19.966Z,13.30
2022-09-17T10:38:37.031Z,8.60
2022-09-17T10:41:56.679Z,8.50
2022-09-17T10:45:01.021Z,11.00
2022-09-17T10:48:02.952Z,9.10
2022-09-17T10:51:06.873Z,8.60
2022-09-17T10:54:14.786Z,7.10
2022-09-17T10:57:36.622Z,9.30
2022-09-17T11:01:09.526Z,12.40
2022-09-17T11:04:25.056Z,10.00
2022-09-17T11:07:47.264Z,12.00
2022-09-17T11:10:59.939Z,16.50
2022-09-17T11:14:41.563Z,6.30
2022-09-17T11:18:04.890Z,10.30
2022-09-17T11:21:14.449Z,9.20
2022-09-17T11:24:26.034Z,7.80
2022-09-17T11:27:48.738Z,10.00
2022-09-17T11:31:24.229Z,13.20
2022-09-17T11:34:53.954Z,11.30
2022-09-17T11:38:11.199Z,10.20
2022-09-17T11:41:14.600Z,13.20
2022-09-17T11:44:33.357Z,10.00
2022-09-17T11:47:39.314Z,11.90
2022-09-17T11:50:46.814Z,8.50
2022-09-17T11:54:03.730Z,10.20
2022-09-17T11:57:35.761Z,11.00
2022-09-17T12:00:43.261Z,10.10
2022-09-17T12:04:01.875Z,11.20
2022-09-17T12:07:30.295Z,6.90
2022-09-17T12:10:35.091Z,10.50
2022-09-17T12:13:42.994Z,14.70
2022-09-17T12:16:46.864Z,13.80
2022-09-17T12:19:55.494Z,10.30
2022-09-17T12:22:58.754Z,15.80
2022-09-17T12:26:34.139Z,11.00
2022-09-17T12:29:48.083Z,19.30
2022-09-17T12:33:08.190Z,14.80
2022-09-17T12:36:27.825Z,12.30
2022-09-17T12:39:47.512Z,13.20
2022-09-17T12:43:02.742Z,15.50
2022-09-17T12:46:32.918Z,13.70
2022-09-17T12:49:43.931Z,16.40
2022-09-17T12:52:45.612Z,19.60
2022-09-17T12:55:47.395Z,15.80
2022-09-17T12:59:10.635Z,14.80
2022-09-17T13:02:20.024Z,14.80
2022-09-17T13:05:50.625Z,14.00
2022-09-17T13:09:10.991Z,15.30
2022-09-17T13:12:39.737Z,18.20
2022-09-17T13:16:13.383Z,17.60
2022-09-17T13:19:33.480Z,21.00
2022-09-17T13:22:45.441Z,23.20
2022-09-17T13:25:53.782Z,20.10
2022-09-17T13:28:55.736Z,22.30
2022-09-17T13:31:57.737Z,22.00
2022-09-17T13:35:11.598Z,18.40
2022-09-17T13:38:13.492Z,22.20
2022-09-17T13:41:21.498Z,22.10
2022-09-17T13:44:23.980Z,15.60
2022-09-17T13:47:31.609Z,14.20
2022-09-17T13:50:42.694Z,16.80
2022-09-17T13:53:52.771Z,15.40
2022-09-17T13:57:24.082Z,16.20
2022-09-17T14:01:00.940Z,17.10
2022-09-17T14:04:03.226Z,17.60
2022-09-17T14:07:24.566Z,19.00
2022-09-17T14:13:36.079Z,16.90
2022-09-17T14:16:45.870Z,17.20
2022-09-17T14:19:51.894Z,20.90
2022-09-17T14:23:03.266Z,21.20
2022-09-17T14:26:09.126Z,19.30
2022-09-17T14:29:48.819Z,13.50
2022-09-17T14:33:17.660Z,17.70
2022-09-17T14:36:21.134Z,18.70
2022-09-17T14:39:27.895Z,19.10
2022-09-17T14:42:35.243Z,16.70
2022-09-17T14:45:41.535Z,15.30
2022-09-17T14:48:43.401Z,16.60
2022-09-17T14:51:45.419Z,14.40
2022-09-17T14:54:47.161Z,13.90
2022-09-17T14:57:52.602Z,18.40
2022-09-17T15:00:54.452Z,20.80
2022-09-17T15:04:14.506Z,18.10
2022-09-17T15:07:16.320Z,14.50
2022-09-17T15:10:21.235Z,16.40
2022-09-17T15:13:28.489Z,13.10
2022-09-17T15:16:30.838Z,16.60
2022-09-17T15:19:42.108Z,30.70
2022-09-17T15:22:46.210Z,16.30
2022-09-17T15:25:51.505Z,17.50
2022-09-17T15:28:54.362Z,18.70
2022-09-17T15:31:56.282Z,14.30
2022-09-17T15:35:17.342Z,20.50
2022-09-17T15:38:26.917Z,17.10
2022-09-17T15:41:29.105Z,17.00
2022-09-17T15:44:31.848Z,17.50
2022-09-17T15:47:37.017Z,21.40
2022-09-17T15:50:53.992Z,18.70
2022-09-17T15:54:05.251Z,22.10
2022-09-17T15:57:14.358Z,23.50
2022-09-17T16:00:17.232Z,20.10
2022-09-17T16:03:40.701Z,25.10
2022-09-17T16:06:49.078Z,23.50
2022-09-17T16:09:52.419Z,20.00
2022-09-17T16:12:54.311Z,17.60
2022-09-17T16:15:56.380Z,22.60
2022-09-17T16:18:58.345Z,16.80
2022-09-17T16:22:00.110Z,18.90
2022-09-17T16:25:02.038Z,19.90
2022-09-17T16:28:09.374Z,18.50
2022-09-17T16:31:13.589Z,23.30
2022-09-17T16:34:15.394Z,20.60
2022-09-17T16:37:17.246Z,19.70
2022-09-17T16:40:20.020Z,20.50
2022-09-17T16:43:22.186Z,24.00
2022-09-17T16:46:24.049Z,22.00
2022-09-17T16:49:25.918Z,22.70
2022-09-17T16:52:27.693Z,19.30
2022-09-17T16:55:29.769Z,19.50
2022-09-17T16:58:31.658Z,22.00
2022-09-17T17:01:33.465Z,19.30
2022-09-17T17:04:35.343Z,22.40
2022-09-17T17:07:37.322Z,25.10
2022-09-17T17:10:39.373Z,22.00
2022-09-17T17:13:44.847Z,28.70
2022-09-17T17:16:46.677Z,24.00
2022-09-17T17:19:48.474Z,22.50
2022-09-17T17:22:53.080Z,19.50
2022-09-17T17:25:54.852Z,20.70
2022-09-17T17:28:56.741Z,20.90
2022-09-17T17:31:58.626Z,26.20
2022-09-17T17:35:00.498Z,25.60
2022-09-17T17:38:02.303Z,25.00
2022-09-17T17:41:06.868Z,31.90
2022-09-17T17:44:12.833Z,23.80
2022-09-17T17:47:14.786Z,24.80
2022-09-17T17:50:16.929Z,24.40
2022-09-17T17:53:18.788Z,23.90
2022-09-17T17:56:20.756Z,25.30
2022-09-17T17:59:22.765Z,24.70
2022-09-17T18:02:24.705Z,22.70
2022-09-17T18:05:26.799Z,24.00
2022-09-17T18:08:28.514Z,23.70
2022-09-17T18:11:30.579Z,25.30
2022-09-17T18:14:32.379Z,29.10
2022-09-17T18:17:36.458Z,24.80
2022-09-17T18:20:38.237Z,23.70
2022-09-17T18:23:41.620Z,24.80
2022-09-17T18:26:43.629Z,30.50
2022-09-17T18:29:45.519Z,27.50
2022-09-17T18:32:50.278Z,23.70
2022-09-17T18:35:57.065Z,24.40
2022-09-17T18:42:27.467Z,27.20
2022-09-17T18:45:29.347Z,25.50
2022-09-17T18:48:36.199Z,23.60
2022-09-17T18:51:38.742Z,26.00
2022-09-17T18:54:40.707Z,27.60
2022-09-17T18:57:42.634Z,26.40
2022-09-17T19:00:45.507Z,26.10
2022-09-17T19:03:47.519Z,25.90
2022-09-17T19:06:49.482Z,27.70
2022-09-17T19:09:51.230Z,24.00
2022-09-17T19:12:54.263Z,28.20
2022-09-17T19:15:59.743Z,25.70
2022-09-17T19:19:01.730Z,30.80
2022-09-17T19:22:03.860Z,27.80
2022-09-17T19:25:06.269Z,25.70
2022-09-17T19:28:08.571Z,27.60
2022-09-17T19:31:12.920Z,28.40
2022-09-17T19:34:14.898Z,27.40
2022-09-17T19:37:18.329Z,25.40
2022-09-17T19:40:20.492Z,26.50
2022-09-17T19:43:22.296Z,28.80
2022-09-17T19:46:25.594Z,28.30
2022-09-17T19:49:27.403Z,26.90
2022-09-17T19:52:29.155Z,25.70
2022-09-17T19:55:31.061Z,29.40
2022-09-17T19:58:32.738Z,27.40
2022-09-17T20:01:35.337Z,30.60
2022-09-17T20:04:37.280Z,28.50
2022-09-17T20:07:39.155Z,27.70
2022-09-17T20:10:40.937Z,27.90
2022-09-17T20:13:43.055Z,31.00
2022-09-17T20:16:45.276Z,30.00
2022-09-17T20:19:46.998Z,29.00
2022-09-17T20:22:51.710Z,29.30
2022-09-17T20:25:54.110Z,29.50
2022-09-17T20:28:56.493Z,29.40
2022-09-17T20:31:58.218Z,29.50
2022-09-17T20:35:00.148Z,31.40
2022-09-17T20:39:06.569Z,26.10
2022-09-17T20:41:24.926Z,28.90
2022-09-17T20:44:26.802Z,27.90
2022-09-17T20:47:28.580Z,28.00
2022-09-17T20:50:30.354Z,32.10
2022-09-17T20:53:34.075Z,30.40
2022-09-17T20:56:36.100Z,30.10
2022-09-17T21:00:04.117Z,32.10
2022-09-17T21:03:05.971Z,33.80
2022-09-17T21:06:07.930Z,32.60
2022-09-17T21:09:12.477Z,34.70
2022-09-17T21:12:14.234Z,32.70
2022-09-17T21:15:16.055Z,28.90
2022-09-17T21:18:17.819Z,29.00
2022-09-17T21:21:19.817Z,27.10
2022-09-17T21:24:21.798Z,29.50
2022-09-17T21:27:23.623Z,28.80
2022-09-17T21:30:25.894Z,26.90
2022-09-17T21:33:27.706Z,29.50
2022-09-17T21:36:32.219Z,29.40
2022-09-17T21:39:35.786Z,28.20
2022-09-17T21:42:38.957Z,30.50
2022-09-17T21:45:40.899Z,29.00
2022-09-17T21:48:47.847Z,31.60
2022-09-17T21:51:49.835Z,31.30
2022-09-17T21:54:51.748Z,30.80
2022-09-17T21:57:53.476Z,29.50
2022-09-17T22:00:55.199Z,29.80
2022-09-17T22:03:57.933Z,28.70
2022-09-17T22:07:00.669Z,31.90
2022-09-17T22:10:02.480Z,30.10
2022-09-17T22:13:04.751Z,27.10
2022-09-17T22:16:09.145Z,24.10
2022-09-17T22:19:13.875Z,24.60
2022-09-17T22:22:15.715Z,24.20
2022-09-17T22:25:17.531Z,26.90
2022-09-17T22:28:21.636Z,28.60
2022-09-17T22:31:23.845Z,27.70
2022-09-17T22:34:26.642Z,27.80
2022-09-17T22:37:29.207Z,30.60
2022-09-17T22:40:31.068Z,29.40
2022-09-17T22:43:33.186Z,28.20
2022-09-17T22:46:39.521Z,29.10
2022-09-17T22:49:41.623Z,28.70
2022-09-17T22:52:43.318Z,26.50
2022-09-17T22:55:54.866Z,28.40
2022-09-17T22:58:57.993Z,28.00
2022-09-17T23:01:59.786Z,24.30
2022-09-17T23:05:21.411Z,23.70
2022-09-17T23:08:38.033Z,24.20
2022-09-17T23:11:40.159Z,22.60
2022-09-17T23:14:41.930Z,24.40
2022-09-17T23:17:43.823Z,22.90
2022-09-17T23:21:10.534Z,24.90
2022-09-17T23:24:18.215Z,21.20
2022-09-17T23:27:20.091Z,20.60
2022-09-17T23:30:24.264Z,21.70
2022-09-17T23:33:26.191Z,23.10
2022-09-17T23:36:30.129Z,22.20
2022-09-17T23:39:32.137Z,22.00
2022-09-17T23:42:37.066Z,19.80
2022-09-17T23:45:38.906Z,21.60
2022-09-17T23:48:41.242Z,19.10
2022-09-17T23:51:43.175Z,21.40
2022-09-17T23:54:45.144Z,19.60
2022-09-17T23:57:47.136Z,17.10
